Time;durP1;ratioP1;P1;durP2;ratioP2;P2;SDS_P1;SDS_P2;PMS_P1;PMS_P2;Temp;Humidity;BMP_temperature;BMP_pressure;BME280_temperature;BME280_humidity;BME280_pressure;Samples;Min_cycle;Max_cycle;Signal;HPM_P1;HPM_P2
2022/01/27 00:00:48;;;;;;;327.42;74.78;;;;;;;2.09;64.19;100456.69;340619;28;1396;-66
2022/01/27 00:01:06;;;;;;;328.50;74.88;;;;;;;2.10;63.69;100461.00;339482;29;1542;-67
2022/01/27 00:01:30;;;;;;;328.27;75.80;;;;;;;2.10;64.08;100455.84;340011;28;1401;-67
2022/01/27 00:03:46;;;;;;;328.73;75.22;;;;;;;2.11;64.24;100456.72;339485;29;734;-66
2022/01/27 00:04:21;;;;;;;331.20;78.30;;;;;;;2.13;64.12;100455.00;334168;29;1272;-67
2022/01/27 00:04:37;;;;;;;329.35;77.32;;;;;;;2.13;64.04;100453.28;339099;29;1757;-67
2022/01/27 00:05:02;;;;;;;328.17;74.80;;;;;;;2.14;64.23;100456.72;339239;29;1640;-67
2022/01/27 00:05:23;;;;;;;328.30;75.22;;;;;;;2.13;63.62;100453.28;337110;29;1931;-67
2022/01/27 00:05:33;;;;;;;330.40;75.03;;;;;;;2.15;63.96;100453.28;338394;29;1470;-67
2022/01/27 00:06:01;;;;;;;330.67;74.00;;;;;;;2.16;63.89;100462.78;337455;29;1226;-67
2022/01/27 00:06:12;;;;;;;330.42;75.82;;;;;;;2.15;64.06;100453.28;337079;29;894;-67
2022/01/27 00:06:22;;;;;;;332.30;76.80;;;;;;;2.15;64.39;100459.31;338457;29;939;-67
2022/01/27 00:06:34;;;;;;;331.65;76.88;;;;;;;2.14;63.80;100457.59;337077;28;1800;-67
2022/01/27 00:06:44;;;;;;;331.13;77.45;;;;;;;2.12;63.80;100456.72;339934;28;2002;-67
2022/01/27 00:06:55;;;;;;;329.00;76.40;;;;;;;2.14;64.30;100459.31;340941;28;924;-67
2022/01/27 00:07:05;;;;;;;328.80;77.00;;;;;;;2.12;64.12;100453.28;339511;29;1209;-67
2022/01/27 00:07:16;;;;;;;330.10;77.63;;;;;;;2.12;63.69;100464.47;338121;29;806;-67
2022/01/27 00:07:26;;;;;;;332.10;79.40;;;;;;;2.12;63.88;100459.31;339493;29;1058;-67
2022/01/27 00:07:36;;;;;;;333.00;78.97;;;;;;;2.12;64.09;100459.31;337051;29;878;-67
2022/01/27 00:08:22;;;;;;;328.60;75.53;;;;;;;2.12;64.36;100463.59;339447;29;1991;-67
2022/01/27 00:08:46;;;;;;;330.66;74.98;;;;;;;2.12;64.15;100461.88;339365;29;2084;-67
2022/01/27 00:09:05;;;;;;;331.67;77.47;;;;;;;2.12;64.21;100464.47;335790;29;3500;-66
2022/01/27 00:10:01;;;;;;;332.10;76.35;;;;;;;2.10;64.38;100453.25;337448;29;1335;-67
2022/01/27 00:11:01;;;;;;;329.10;75.15;;;;;;;2.10;64.48;100454.97;337077;29;1691;-67
2022/01/27 00:11:15;;;;;;;331.83;76.03;;;;;;;2.09;64.37;100458.41;340859;28;1254;-67
2022/01/27 00:11:26;;;;;;;332.55;78.18;;;;;;;2.09;64.31;100458.41;340917;28;1521;-70
2022/01/27 00:11:37;;;;;;;331.13;77.55;;;;;;;2.07;64.62;100458.41;339221;28;1193;-67
2022/01/27 00:11:48;;;;;;;330.83;76.68;;;;;;;2.07;64.81;100460.97;336972;29;2061;-67
2022/01/27 00:12:01;;;;;;;328.98;75.60;;;;;;;2.08;64.46;100462.72;339430;29;969;-67
2022/01/27 00:12:14;;;;;;;327.20;74.63;;;;;;;2.08;64.53;100462.72;339432;29;1510;-67
2022/01/27 00:12:24;;;;;;;327.15;75.63;;;;;;;2.09;64.91;100464.44;339504;29;1026;-67
2022/01/27 00:12:35;;;;;;;329.13;75.60;;;;;;;2.09;65.16;100464.44;339387;29;1895;-67
2022/01/27 00:12:45;;;;;;;328.95;76.13;;;;;;;2.10;65.06;100465.31;340559;28;1552;-66
2022/01/27 00:12:56;;;;;;;329.37;77.03;;;;;;;2.10;64.18;100466.16;337150;29;862;-66
2022/01/27 00:13:17;;;;;;;329.08;75.93;;;;;;;2.09;64.76;100464.44;335508;29;1229;-66
2022/01/27 00:13:31;;;;;;;329.10;76.75;;;;;;;2.10;65.16;100466.16;336928;29;1195;-67
2022/01/27 00:13:48;;;;;;;331.10;78.65;;;;;;;2.10;64.63;100461.00;339628;29;885;-67
2022/01/27 00:14:01;;;;;;;329.95;76.40;;;;;;;2.10;64.88;100458.44;338249;28;2002;-67
2022/01/27 00:14:13;;;;;;;328.95;75.57;;;;;;;2.10;65.02;100465.31;339109;28;1332;-67
2022/01/27 00:14:23;;;;;;;330.25;77.32;;;;;;;2.10;64.56;100462.72;339156;28;1308;-67
2022/01/27 00:14:34;;;;;;;328.35;77.15;;;;;;;2.11;65.03;100467.03;338077;29;1998;-67
2022/01/27 00:14:47;;;;;;;326.77;76.23;;;;;;;2.10;64.83;100465.31;340705;28;1911;-66
2022/01/27 00:15:09;;;;;;;326.88;75.63;;;;;;;2.09;64.75;100464.44;340632;28;1712;-66
2022/01/27 00:15:27;;;;;;;329.15;77.53;;;;;;;2.11;65.12;100467.03;338071;29;1444;-67
2022/01/27 00:15:39;;;;;;;329.35;78.13;;;;;;;2.11;65.76;100467.03;336763;29;1287;-66
2022/01/27 00:15:58;;;;;;;329.15;77.85;;;;;;;2.11;64.88;100465.31;338253;29;1680;-67
2022/01/27 00:16:26;;;;;;;333.05;78.35;;;;;;;2.09;65.03;100459.28;334365;29;1298;-66
2022/01/27 00:16:41;;;;;;;331.73;77.28;;;;;;;2.10;64.38;100466.16;339284;29;1849;-66
2022/01/27 00:16:57;;;;;;;330.33;77.85;;;;;;;2.09;65.08;100467.03;342184;28;1794;-66
2022/01/27 00:17:13;;;;;;;331.50;79.93;;;;;;;2.12;65.12;100479.09;339541;29;1378;-67
2022/01/27 00:17:29;;;;;;;331.67;78.45;;;;;;;2.10;65.00;100466.16;338734;29;1309;-66
2022/01/27 00:17:44;;;;;;;329.85;76.63;;;;;;;2.10;64.49;100462.72;338172;29;1357;-66
2022/01/27 00:17:59;;;;;;;332.58;78.28;;;;;;;2.11;65.01;100462.72;336917;29;1331;-66
2022/01/27 00:18:17;;;;;;;331.58;77.88;;;;;;;2.11;64.59;100473.06;335463;29;881;-67
2022/01/27 00:18:30;;;;;;;329.00;75.78;;;;;;;2.13;65.26;100465.31;337983;28;1222;-67
2022/01/27 00:18:41;;;;;;;332.27;76.85;;;;;;;2.11;64.74;100470.47;338111;29;2205;-67
2022/01/27 00:18:52;;;;;;;333.02;78.00;;;;;;;2.12;64.86;100463.59;338674;28;1923;-67
2022/01/27 00:19:02;;;;;;;332.46;78.16;;;;;;;2.14;64.98;100473.09;339257;28;1388;-67
2022/01/27 00:19:13;;;;;;;332.67;79.90;;;;;;;2.13;64.84;100471.34;340510;28;1387;-67
2022/01/27 00:19:24;;;;;;;332.40;78.60;;;;;;;2.10;64.91;100463.59;339170;28;790;-67
2022/01/27 00:19:34;;;;;;;333.35;78.88;;;;;;;2.11;64.17;100467.91;337810;29;1261;-67
2022/01/27 00:19:44;;;;;;;333.85;78.68;;;;;;;2.10;64.90;100463.59;338105;29;2107;-67
2022/01/27 00:19:55;;;;;;;333.77;79.43;;;;;;;2.10;65.22;100466.16;338150;29;1205;-67
2022/01/27 00:20:06;;;;;;;333.88;78.70;;;;;;;2.12;64.62;100471.34;340730;28;1464;-67
2022/01/27 00:20:17;;;;;;;332.55;78.13;;;;;;;2.11;65.30;100467.91;339485;28;1418;-67
2022/01/27 00:20:28;;;;;;;332.25;77.50;;;;;;;2.11;65.22;100470.47;337978;29;1341;-67
2022/01/27 00:20:39;;;;;;;333.30;78.40;;;;;;;2.11;64.90;100473.06;336858;29;1221;-67
2022/01/27 00:20:49;;;;;;;332.52;78.63;;;;;;;2.11;65.20;100470.47;337947;29;1661;-67
2022/01/27 00:21:00;;;;;;;333.83;79.38;;;;;;;2.12;65.63;100474.78;338136;29;1425;-67
2022/01/27 00:21:10;;;;;;;331.87;77.83;;;;;;;2.13;65.37;100466.19;339593;29;861;-67
2022/01/27 00:21:25;;;;;;;333.60;78.18;;;;;;;2.13;65.28;100471.34;338386;29;853;-67
2022/01/27 00:21:35;;;;;;;332.18;79.36;;;;;;;2.14;65.45;100472.22;337787;29;1776;-67
2022/01/27 00:21:46;;;;;;;334.73;80.80;;;;;;;2.14;65.03;100467.06;340805;28;1266;-67
2022/01/27 00:21:56;;;;;;;333.83;79.05;;;;;;;2.13;64.87;100471.34;339443;29;826;-67
2022/01/27 00:22:07;;;;;;;334.10;79.33;;;;;;;2.11;65.64;100467.91;339421;29;2040;-67
2022/01/27 00:22:17;;;;;;;333.20;80.37;;;;;;;2.12;65.38;100468.75;338160;29;831;-67
2022/01/27 00:22:28;;;;;;;332.03;80.33;;;;;;;2.13;64.84;100465.31;336872;29;1129;-67
2022/01/27 00:22:38;;;;;;;329.67;78.03;;;;;;;2.13;65.17;100466.19;339314;29;1185;-67
2022/01/27 00:22:49;;;;;;;328.08;76.15;;;;;;;2.14;65.56;100467.91;339503;29;1984;-67
2022/01/27 00:22:59;;;;;;;329.90;76.60;;;;;;;2.14;65.15;100473.09;339674;29;2077;-68
2022/01/27 00:23:10;;;;;;;330.52;76.90;;;;;;;2.13;64.85;100471.34;338200;29;1243;-68
2022/01/27 00:23:20;;;;;;;331.53;78.20;;;;;;;2.14;65.22;100467.06;336005;29;1819;-68
2022/01/27 00:23:31;;;;;;;331.67;78.87;;;;;;;2.15;65.58;100468.78;339305;29;1459;-68
2022/01/27 00:23:41;;;;;;;331.98;79.85;;;;;;;2.14;65.40;100470.50;339297;29;871;-68
2022/01/27 00:23:52;;;;;;;332.83;79.72;;;;;;;2.14;65.63;100467.91;338879;28;1447;-68
2022/01/27 00:24:03;;;;;;;333.95;80.32;;;;;;;2.15;65.90;100469.66;337027;28;1461;-68
2022/01/27 00:24:13;;;;;;;332.77;79.85;;;;;;;2.15;65.19;100469.66;335454;29;1397;-68
2022/01/27 00:24:24;;;;;;;331.97;79.77;;;;;;;2.17;65.15;100467.91;337651;29;1315;-68
2022/01/27 00:24:34;;;;;;;332.23;79.53;;;;;;;2.17;64.76;100467.91;340144;28;942;-68
2022/01/27 00:24:44;;;;;;;334.33;80.37;;;;;;;2.17;65.04;100467.03;339467;28;1443;-68
2022/01/27 00:24:55;;;;;;;333.57;80.03;;;;;;;2.16;65.35;100471.38;342281;28;939;-68
2022/01/27 00:25:06;;;;;;;333.33;78.43;;;;;;;2.16;65.10;100465.34;336897;29;1672;-68
2022/01/27 00:25:16;;;;;;;333.83;78.55;;;;;;;2.17;65.51;100465.31;336957;29;1267;-67
2022/01/27 00:25:27;;;;;;;333.10;77.20;;;;;;;2.16;64.88;100471.38;336787;29;921;-67
2022/01/27 00:25:37;;;;;;;332.40;77.77;;;;;;;2.16;65.21;100466.22;336800;29;1550;-67
2022/01/27 00:25:47;;;;;;;333.38;78.72;;;;;;;2.16;65.77;100463.63;336557;29;1296;-67
2022/01/27 00:25:58;;;;;;;334.20;79.10;;;;;;;2.16;65.69;100466.22;339607;28;1502;-67
2022/01/27 00:26:09;;;;;;;333.98;78.25;;;;;;;2.16;65.52;100465.34;339175;29;1087;-67
2022/01/27 00:26:20;;;;;;;333.53;78.20;;;;;;;2.13;65.38;100463.59;338881;28;1468;-67
2022/01/27 00:26:30;;;;;;;333.17;78.97;;;;;;;2.15;66.03;100459.31;337975;29;1491;-67
2022/01/27 00:26:41;;;;;;;332.42;78.68;;;;;;;2.14;65.36;100464.47;338039;29;949;-67
2022/01/27 00:26:53;;;;;;;333.83;78.87;;;;;;;2.15;65.34;100467.06;336823;29;1433;-67
2022/01/27 00:27:04;;;;;;;333.83;79.35;;;;;;;2.15;66.10;100464.50;336968;29;2532;-67
2022/01/27 00:27:14;;;;;;;332.92;78.78;;;;;;;2.15;65.94;100464.50;336853;29;2253;-67
2022/01/27 00:27:24;;;;;;;333.03;78.63;;;;;;;2.16;65.42;100468.81;337009;29;1118;-66
2022/01/27 00:27:35;;;;;;;333.92;79.45;;;;;;;2.16;65.18;100461.06;338064;29;1665;-65
2022/01/27 00:27:46;;;;;;;332.70;79.90;;;;;;;2.15;65.48;100461.03;336889;29;1324;-65
2022/01/27 00:27:56;;;;;;;332.63;80.43;;;;;;;2.12;65.36;100459.31;336862;29;1034;-65
2022/01/27 00:28:07;;;;;;;331.13;78.97;;;;;;;2.13;65.90;100466.19;339356;28;1454;-65
2022/01/27 00:28:18;;;;;;;334.50;78.50;;;;;;;2.13;65.32;100458.44;340931;28;1999;-66
2022/01/27 00:28:28;;;;;;;335.15;78.82;;;;;;;2.15;65.57;100461.03;340755;28;813;-66
2022/01/27 00:28:41;;;;;;;335.70;79.15;;;;;;;2.15;65.34;100464.50;339394;29;1328;-67
2022/01/27 00:28:52;;;;;;;333.10;79.30;;;;;;;2.15;65.83;100463.63;338585;28;1649;-67
2022/01/27 00:29:02;;;;;;;332.55;78.78;;;;;;;2.15;65.37;100471.38;337776;28;1490;-67
2022/01/27 00:29:13;;;;;;;332.37;79.27;;;;;;;2.16;66.08;100466.22;336822;29;1294;-68
2022/01/27 00:29:24;;;;;;;331.80;77.60;;;;;;;2.16;65.26;100461.06;336373;28;1989;-68
2022/01/27 00:29:34;;;;;;;330.85;77.32;;;;;;;2.17;65.63;100467.91;339723;28;1288;-68
2022/01/27 00:29:45;;;;;;;330.93;77.67;;;;;;;2.17;65.54;100467.91;340487;28;1832;-68
2022/01/27 00:29:55;;;;;;;331.17;79.28;;;;;;;2.18;66.14;100463.59;339533;29;893;-68
2022/01/27 00:30:07;;;;;;;334.23;79.00;;;;;;;2.17;65.25;100461.88;339445;28;2081;-66
2022/01/27 00:30:17;;;;;;;333.17;77.60;;;;;;;2.18;65.47;100464.47;336843;29;1480;-65
2022/01/27 00:30:28;;;;;;;333.63;77.20;;;;;;;2.19;65.94;100466.22;335487;29;1549;-66
2022/01/27 00:30:38;;;;;;;333.27;78.33;;;;;;;2.18;65.73;100459.31;335638;29;898;-66
2022/01/27 00:30:49;;;;;;;334.75;80.15;;;;;;;2.18;65.48;100459.31;339516;29;1500;-66
2022/01/27 00:30:59;;;;;;;332.47;79.00;;;;;;;2.18;65.15;100464.47;339159;29;910;-66
2022/01/27 00:31:09;;;;;;;330.70;79.28;;;;;;;2.17;65.90;100462.75;339500;29;894;-67
2022/01/27 00:31:21;;;;;;;330.03;79.17;;;;;;;2.19;65.16;100462.75;338498;29;2018;-67
2022/01/27 00:31:31;;;;;;;330.40;79.20;;;;;;;2.19;65.78;100461.03;339577;28;2004;-66
2022/01/27 00:31:41;;;;;;;330.63;78.63;;;;;;;2.20;65.65;100462.78;337119;29;957;-66
2022/01/27 00:31:52;;;;;;;332.17;80.30;;;;;;;2.19;65.85;100463.63;340629;28;1871;-66
2022/01/27 00:32:02;;;;;;;333.23;81.13;;;;;;;2.21;65.94;100458.47;340131;28;1376;-66
2022/01/27 00:32:13;;;;;;;333.20;80.88;;;;;;;2.20;65.63;100456.75;339347;28;1266;-67
2022/01/27 00:32:23;;;;;;;331.87;78.97;;;;;;;2.21;65.48;100463.63;340679;28;1078;-67
2022/01/27 00:32:34;;;;;;;331.40;79.53;;;;;;;2.20;66.06;100462.78;338919;28;1136;-66
2022/01/27 00:32:44;;;;;;;333.05;79.38;;;;;;;2.19;65.78;100461.03;338520;28;1408;-66
2022/01/27 00:32:54;;;;;;;333.27;78.82;;;;;;;2.19;65.84;100455.88;338083;29;798;-66
2022/01/27 00:33:05;;;;;;;333.40;78.53;;;;;;;2.19;65.76;100462.75;342095;28;1751;-66
2022/01/27 00:33:15;;;;;;;333.05;79.05;;;;;;;2.17;65.59;100452.41;339194;29;1980;-66
2022/01/27 00:33:26;;;;;;;333.77;80.43;;;;;;;2.18;65.96;100459.31;338165;29;1239;-66
2022/01/27 00:33:36;;;;;;;332.85;79.93;;;;;;;2.17;65.68;100457.59;339196;29;1713;-66
2022/01/27 00:33:47;;;;;;;332.77;79.33;;;;;;;2.18;65.55;100464.47;338042;29;1616;-66
2022/01/27 00:33:58;;;;;;;334.30;79.70;;;;;;;2.16;65.48;100455.88;336921;29;1208;-66
2022/01/27 00:34:08;;;;;;;334.98;80.28;;;;;;;2.17;65.61;100465.31;337499;29;965;-66
2022/01/27 00:34:18;;;;;;;337.67;82.53;;;;;;;2.17;65.84;100465.31;337119;29;1393;-66
2022/01/27 00:34:29;;;;;;;337.85;81.65;;;;;;;2.17;66.32;100460.16;339600;28;1764;-66
2022/01/27 00:34:39;;;;;;;336.43;80.00;;;;;;;2.16;66.28;100466.22;340884;28;916;-67
2022/01/27 00:34:50;;;;;;;334.20;78.27;;;;;;;2.15;65.80;100456.75;339408;29;1456;-66
2022/01/27 00:35:00;;;;;;;332.47;79.47;;;;;;;2.15;66.08;100459.31;337623;29;1663;-66
2022/01/27 00:35:11;;;;;;;333.98;81.25;;;;;;;2.14;66.01;100462.75;339506;29;1248;-66
2022/01/27 00:35:21;;;;;;;331.90;79.90;;;;;;;2.15;65.87;100458.47;339031;29;1510;-66
2022/01/27 00:35:32;;;;;;;331.75;78.35;;;;;;;2.14;65.81;100452.44;339550;29;2059;-66
2022/01/27 00:35:42;;;;;;;332.08;77.90;;;;;;;2.14;65.84;100460.19;337168;29;1096;-66
2022/01/27 00:35:53;;;;;;;334.40;78.83;;;;;;;2.13;65.65;100458.44;339491;29;996;-66
2022/01/27 00:36:03;;;;;;;334.98;80.30;;;;;;;2.14;65.73;100457.59;339658;29;818;-66
2022/01/27 00:36:14;;;;;;;335.07;82.13;;;;;;;2.16;65.97;100461.06;340531;28;2268;-66
2022/01/27 00:36:24;;;;;;;334.35;82.57;;;;;;;2.16;65.77;100455.88;340741;28;1503;-66
2022/01/27 00:36:34;;;;;;;335.30;81.37;;;;;;;2.18;65.27;100459.31;340643;28;1369;-67
2022/01/27 00:36:45;;;;;;;336.42;81.25;;;;;;;2.19;66.14;100455.88;339407;29;826;-66
2022/01/27 00:36:55;;;;;;;336.13;81.27;;;;;;;2.19;65.97;100461.03;337898;29;1198;-66
2022/01/27 00:37:06;;;;;;;334.70;82.43;;;;;;;2.22;65.80;100452.44;338275;29;1348;-66
2022/01/27 00:37:16;;;;;;;333.80;81.00;;;;;;;2.22;66.03;100460.19;339865;28;917;-66
2022/01/27 00:37:27;;;;;;;333.90;79.72;;;;;;;2.22;65.64;100452.44;340486;28;995;-66
2022/01/27 00:37:37;;;;;;;335.27;79.30;;;;;;;2.22;66.34;100455.91;339337;29;1674;-66
2022/01/27 00:37:48;;;;;;;335.60;79.50;;;;;;;2.22;66.35;100453.31;339345;29;2245;-66
2022/01/27 00:37:58;;;;;;;335.37;79.43;;;;;;;2.21;65.38;100459.34;336894;29;936;-66
2022/01/27 00:38:08;;;;;;;335.77;79.70;;;;;;;2.22;65.89;100450.72;338202;29;1339;-66
2022/01/27 00:38:19;;;;;;;335.37;79.00;;;;;;;2.21;66.17;100459.34;338505;29;1982;-66
2022/01/27 00:38:30;;;;;;;333.70;77.95;;;;;;;2.22;66.04;100449.88;339334;28;1483;-66
2022/01/27 00:38:40;;;;;;;330.30;76.72;;;;;;;2.22;65.78;100455.91;340776;28;871;-66
2022/01/27 00:38:51;;;;;;;330.17;77.53;;;;;;;2.20;66.32;100447.28;337471;28;1684;-66
2022/01/27 00:39:01;;;;;;;332.80;80.00;;;;;;;2.18;65.79;100448.97;338131;28;1469;-67
2022/01/27 00:39:12;;;;;;;336.40;81.68;;;;;;;2.20;65.70;100449.00;338147;29;826;-67
2022/01/27 00:39:22;;;;;;;337.30;82.53;;;;;;;2.20;65.90;100455.03;340276;28;1540;-67
2022/01/27 00:39:33;;;;;;;335.60;80.75;;;;;;;2.19;65.35;100447.25;341047;28;1527;-66
2022/01/27 00:39:43;;;;;;;335.83;80.37;;;;;;;2.22;65.90;100450.72;342160;28;805;-66
2022/01/27 00:39:54;;;;;;;335.45;79.60;;;;;;;2.21;65.82;100453.31;339512;29;925;-66
2022/01/27 00:40:05;;;;;;;336.57;80.77;;;;;;;2.22;65.80;100450.72;339950;28;1400;-66
2022/01/27 00:40:15;;;;;;;334.27;80.30;;;;;;;2.23;66.00;100456.75;340646;28;1747;-66
2022/01/27 00:40:26;;;;;;;333.23;78.80;;;;;;;2.20;65.43;100447.28;340669;28;1350;-66
2022/01/27 00:40:36;;;;;;;333.45;77.85;;;;;;;2.23;66.05;100444.72;339376;28;1994;-66
2022/01/27 00:40:47;;;;;;;333.83;77.70;;;;;;;2.24;66.19;100449.03;340729;28;1213;-67
2022/01/27 00:40:57;;;;;;;335.77;78.95;;;;;;;2.23;65.36;100451.59;339583;29;878;-66
2022/01/27 00:41:08;;;;;;;335.90;80.07;;;;;;;2.23;65.84;100449.88;338096;29;1495;-66
2022/01/27 00:41:19;;;;;;;336.45;81.82;;;;;;;2.23;66.16;100452.47;337994;29;1497;-66
2022/01/27 00:41:30;;;;;;;335.42;81.68;;;;;;;2.23;65.98;100451.59;334409;29;1256;-66
2022/01/27 00:41:40;;;;;;;337.60;82.10;;;;;;;2.24;65.88;100453.31;339178;29;1193;-66
2022/01/27 00:41:51;;;;;;;336.30;80.55;;;;;;;2.24;66.15;100454.19;338556;29;2087;-67
2022/01/27 00:42:01;;;;;;;335.57;80.73;;;;;;;2.22;66.28;100453.31;338725;29;1523;-67
2022/01/27 00:42:11;;;;;;;335.00;80.68;;;;;;;2.24;65.68;100451.59;339111;29;1285;-66
2022/01/27 00:42:23;;;;;;;334.10;79.97;;;;;;;2.24;66.27;100443.88;342157;28;1399;-66
2022/01/27 00:42:34;;;;;;;336.55;81.25;;;;;;;2.23;65.24;100452.47;341826;28;1504;-66
2022/01/27 00:42:45;;;;;;;334.90;81.35;;;;;;;2.22;65.91;100453.31;340896;28;1419;-66
2022/01/27 00:42:56;;;;;;;338.05;82.18;;;;;;;2.21;66.32;100454.16;338060;28;1047;-66
2022/01/27 00:43:06;;;;;;;335.35;80.70;;;;;;;2.21;65.76;100450.72;336585;29;1420;-66
2022/01/27 00:43:18;;;;;;;334.33;80.07;;;;;;;2.20;65.59;100449.84;339418;28;1454;-66
2022/01/27 00:43:28;;;;;;;333.30;79.85;;;;;;;2.21;65.77;100451.59;342008;28;958;-66
2022/01/27 00:43:38;;;;;;;331.97;78.80;;;;;;;2.22;65.45;100453.31;339378;28;1583;-67
2022/01/27 00:43:49;;;;;;;331.85;78.07;;;;;;;2.21;65.42;100449.00;339758;28;1483;-67
2022/01/27 00:44:01;;;;;;;333.08;78.07;;;;;;;2.23;65.43;100446.44;338132;29;1050;-67
2022/01/27 00:44:11;;;;;;;336.50;80.22;;;;;;;2.22;65.38;100450.72;338091;29;791;-66
2022/01/27 00:44:22;;;;;;;336.40;81.40;;;;;;;2.21;65.94;100446.44;335184;29;1231;-67
2022/01/27 00:44:32;;;;;;;334.83;81.05;;;;;;;2.21;65.87;100458.47;338577;29;1250;-67
2022/01/27 00:44:43;;;;;;;333.30;80.87;;;;;;;2.20;65.38;100457.59;341644;28;1299;-66
2022/01/27 00:44:54;;;;;;;333.57;78.87;;;;;;;2.20;65.77;100447.28;340867;28;1857;-66
2022/01/27 00:45:04;;;;;;;333.80;78.40;;;;;;;2.20;65.57;100454.16;336808;29;913;-66
2022/01/27 00:45:15;;;;;;;333.53;77.00;;;;;;;2.22;66.28;100452.44;336533;29;1957;-66
2022/01/27 00:45:28;;;;;;;333.52;78.18;;;;;;;2.22;66.11;100445.56;335623;29;864;-66
2022/01/27 00:45:38;;;;;;;333.70;77.82;;;;;;;2.23;65.81;100451.59;338162;29;1044;-66
2022/01/27 00:45:49;;;;;;;333.52;78.38;;;;;;;2.24;65.54;100449.03;338500;29;1769;-66
2022/01/27 00:45:59;;;;;;;332.37;80.07;;;;;;;2.26;65.88;100444.72;338209;29;1620;-66
2022/01/27 00:46:15;;;;;;;332.73;82.05;;;;;;;2.26;65.46;100446.44;336681;29;1356;-66
2022/01/27 00:46:25;;;;;;;334.33;81.05;;;;;;;2.27;66.01;100450.75;338318;29;1061;-68
2022/01/27 00:46:36;;;;;;;333.38;78.47;;;;;;;2.28;66.25;100453.34;337763;29;1239;-67
2022/01/27 00:46:47;;;;;;;333.40;78.95;;;;;;;2.29;65.44;100452.50;339106;28;1475;-67
2022/01/27 00:46:57;;;;;;;334.00;80.60;;;;;;;2.30;65.93;100448.19;339485;28;885;-67
2022/01/27 00:47:08;;;;;;;334.27;81.97;;;;;;;2.30;66.08;100446.47;339630;29;1995;-67
2022/01/27 00:47:18;;;;;;;335.02;81.28;;;;;;;2.29;65.45;100447.34;339903;28;1276;-67
2022/01/27 00:47:29;;;;;;;336.00;82.10;;;;;;;2.30;66.13;100449.06;338036;28;1296;-67
2022/01/27 00:47:39;;;;;;;335.75;81.72;;;;;;;2.31;65.77;100444.78;340824;28;1905;-67
2022/01/27 00:47:50;;;;;;;336.40;82.37;;;;;;;2.28;65.45;100450.78;340230;28;1911;-67
2022/01/27 00:48:03;;;;;;;336.55;82.97;;;;;;;2.30;65.68;100453.38;341094;28;1686;-67
2022/01/27 00:48:16;;;;;;;336.17;82.15;;;;;;;2.29;65.72;100452.50;339887;29;977;-68
2022/01/27 00:48:27;;;;;;;333.98;79.63;;;;;;;2.29;65.79;100447.34;335602;29;1664;-68
2022/01/27 00:48:37;;;;;;;334.77;80.63;;;;;;;2.29;65.56;100442.19;340560;28;1434;-68
2022/01/27 00:48:48;;;;;;;335.27;80.72;;;;;;;2.27;65.92;100446.47;340758;28;1471;-68
2022/01/27 00:48:59;;;;;;;334.33;82.43;;;;;;;2.28;65.92;100444.75;340322;28;1175;-68
2022/01/27 00:49:09;;;;;;;332.13;80.67;;;;;;;2.29;66.04;100443.91;337995;29;1370;-68
2022/01/27 00:49:19;;;;;;;333.38;80.88;;;;;;;2.28;65.54;100445.59;337300;28;1918;-68
2022/01/27 00:49:30;;;;;;;334.27;79.93;;;;;;;2.27;65.80;100443.88;337003;29;1341;-68
2022/01/27 00:49:41;;;;;;;336.58;82.20;;;;;;;2.27;65.80;100451.63;340846;28;1459;-66
2022/01/27 00:49:51;;;;;;;336.23;81.93;;;;;;;2.26;66.24;100441.28;338793;29;2426;-65
2022/01/27 00:50:02;;;;;;;335.60;81.43;;;;;;;2.27;65.74;100450.75;338458;29;2125;-66
2022/01/27 00:50:16;;;;;;;334.15;79.93;;;;;;;2.28;65.92;100449.91;337075;29;1478;-67
2022/01/27 00:50:27;;;;;;;330.90;78.68;;;;;;;2.27;65.61;100449.03;336969;29;1259;-67
2022/01/27 00:50:38;;;;;;;332.33;79.30;;;;;;;2.27;65.73;100446.47;338258;29;1486;-67
2022/01/27 00:50:54;;;;;;;332.13;78.75;;;;;;;2.28;66.15;100445.59;339116;29;1753;-65
2022/01/27 00:51:07;;;;;;;333.10;80.35;;;;;;;2.30;65.71;100448.19;341118;28;1520;-66
2022/01/27 00:51:21;;;;;;;333.77;82.18;;;;;;;2.28;65.47;100445.59;340949;28;1254;-66
2022/01/27 00:51:36;;;;;;;332.70;82.90;;;;;;;2.27;65.38;100449.03;338159;29;2052;-66
2022/01/27 00:51:47;;;;;;;331.05;80.72;;;;;;;2.24;65.56;100443.88;336823;29;2019;-66
2022/01/27 00:52:00;;;;;;;331.38;79.55;;;;;;;2.24;65.92;100443.88;339536;29;882;-66
2022/01/27 00:52:15;;;;;;;331.17;78.72;;;;;;;2.27;65.35;100443.88;341985;28;1412;-66
2022/01/27 00:52:34;;;;;;;334.05;80.88;;;;;;;2.24;65.92;100443.88;339473;28;1531;-66
2022/01/27 00:52:49;;;;;;;336.30;82.70;;;;;;;2.22;65.71;100440.41;339824;29;1301;-66
2022/01/27 00:53:03;;;;;;;333.77;81.47;;;;;;;2.21;66.08;100443.84;338342;29;885;-66
2022/01/27 00:53:42;;;;;;;333.17;80.63;;;;;;;2.20;65.84;100441.25;339566;28;1029;-66
2022/01/27 00:54:13;;;;;;;329.00;78.40;;;;;;;2.22;65.82;100439.53;336029;29;1448;-67
2022/01/27 00:54:27;;;;;;;329.58;78.13;;;;;;;2.20;66.20;100436.94;338605;28;1814;-67
2022/01/27 00:54:37;;;;;;;333.38;80.25;;;;;;;2.23;66.13;100438.69;339580;29;1587;-67
2022/01/27 00:54:50;;;;;;;332.23;78.95;;;;;;;2.23;65.91;100442.13;339339;29;1710;-67
2022/01/27 00:55:00;;;;;;;331.95;78.78;;;;;;;2.22;66.25;100440.41;339794;29;846;-66
2022/01/27 00:55:12;;;;;;;329.25;78.22;;;;;;;2.22;66.00;100436.97;339403;29;1404;-65
2022/01/27 00:55:25;;;;;;;329.10;77.58;;;;;;;2.23;66.06;100442.13;340233;28;1779;-65
2022/01/27 00:55:40;;;;;;;329.85;76.75;;;;;;;2.23;65.83;100436.97;339314;28;1759;-69
2022/01/27 00:55:51;;;;;;;331.67;78.72;;;;;;;2.23;65.46;100436.09;338234;29;1407;-66
2022/01/27 00:56:15;;;;;;;331.58;79.82;;;;;;;2.22;65.79;100435.25;338360;29;1436;-66
2022/01/27 00:56:35;;;;;;;329.95;77.97;;;;;;;2.23;66.02;100436.09;336810;29;1755;-66
2022/01/27 00:56:53;;;;;;;329.55;78.05;;;;;;;2.22;65.98;100437.81;338477;29;1863;-66
2022/01/27 00:57:14;;;;;;;333.05;77.50;;;;;;;2.23;65.81;100444.72;339859;29;1729;-66
2022/01/27 00:58:59;;;;;;;329.65;77.15;;;;;;;2.23;66.23;100431.81;338224;29;770;-66
2022/01/27 00:59:33;;;;;;;333.47;81.07;;;;;;;2.22;66.23;100436.97;336663;29;1449;-66
2022/01/27 00:59:58;;;;;;;332.77;80.05;;;;;;;2.26;65.48;100438.72;339709;29;2274;-66
2022/01/27 01:00:10;;;;;;;331.95;78.78;;;;;;;2.25;65.82;100434.41;338207;29;1164;-66
2022/01/27 01:00:32;;;;;;;331.23;78.10;;;;;;;2.25;65.59;100435.25;338099;29;1648;-66
2022/01/27 01:00:52;;;;;;;329.35;78.13;;;;;;;2.25;65.97;100430.09;339321;29;1727;-66
2022/01/27 01:01:07;;;;;;;329.92;78.57;;;;;;;2.29;65.97;100436.16;339491;29;850;-66
2022/01/27 01:01:22;;;;;;;327.90;78.57;;;;;;;2.30;65.40;100443.91;339627;29;1218;-66
2022/01/27 01:01:39;;;;;;;328.83;78.18;;;;;;;2.30;65.66;100433.56;339290;29;980;-66
2022/01/27 01:02:00;;;;;;;331.70;78.90;;;;;;;2.30;66.14;100443.91;335905;29;1343;-66
2022/01/27 01:02:23;;;;;;;332.73;81.10;;;;;;;2.28;66.29;100440.44;336827;29;1397;-67
2022/01/27 01:02:48;;;;;;;331.95;79.85;;;;;;;2.29;65.71;100444.75;338105;29;1305;-66
2022/01/27 01:03:07;;;;;;;333.63;80.00;;;;;;;2.27;66.47;100437.84;338434;29;890;-67
2022/01/27 01:03:32;;;;;;;333.88;80.97;;;;;;;2.27;66.00;100437.84;339635;29;909;-67
2022/01/27 01:03:46;;;;;;;333.25;80.35;;;;;;;2.26;65.54;100438.72;340865;28;903;-67
2022/01/27 01:04:00;;;;;;;333.00;79.35;;;;;;;2.26;66.41;100436.13;338474;29;1497;-67
2022/01/27 01:04:12;;;;;;;332.58;79.03;;;;;;;2.25;66.39;100432.69;335290;29;1547;-67
2022/01/27 01:04:28;;;;;;;333.27;80.05;;;;;;;2.26;65.94;100437.00;336917;29;1821;-67
2022/01/27 01:04:42;;;;;;;329.60;78.93;;;;;;;2.28;65.47;100434.41;341516;28;1612;-67
2022/01/27 01:05:10;;;;;;;330.17;79.15;;;;;;;2.28;65.92;100440.44;340059;28;2092;-67
2022/01/27 01:06:15;;;;;;;328.95;77.97;;;;;;;2.32;65.69;100431.00;338428;29;1217;-67